createdAt,value
2023-05-28T00:01:36.547Z,59.57
2023-05-28T00:04:04.956Z,59.91
2023-05-28T00:06:33.209Z,60.33
2023-05-28T00:09:01.482Z,61.00
2023-05-28T00:11:29.554Z,61.46
2023-05-28T00:13:57.631Z,62.70
2023-05-28T00:16:26.607Z,64.51
2023-05-28T00:18:54.818Z,64.70
2023-05-28T00:21:22.762Z,63.90
2023-05-28T00:23:51.031Z,63.62
2023-05-28T00:26:19.132Z,61.97
2023-05-28T00:28:50.040Z,61.81
2023-05-28T00:31:18.152Z,60.82
2023-05-28T00:33:46.417Z,59.47
2023-05-28T00:36:14.868Z,58.45
2023-05-28T00:38:42.936Z,58.33
2023-05-28T00:41:11.149Z,58.89
2023-05-28T00:43:39.603Z,59.53
2023-05-28T00:46:08.228Z,60.21
2023-05-28T00:48:36.568Z,60.76
2023-05-28T00:51:04.830Z,61.36
2023-05-28T00:53:32.945Z,61.94
2023-05-28T00:56:01.086Z,63.17
2023-05-28T00:58:29.778Z,65.06
2023-05-28T01:00:58.102Z,65.25
2023-05-28T01:03:26.902Z,64.71
2023-05-28T01:05:55.106Z,64.04
2023-05-28T01:08:24.502Z,63.16
2023-05-28T01:10:52.680Z,62.81
2023-05-28T01:13:21.365Z,61.84
2023-05-28T01:15:49.843Z,60.42
2023-05-28T01:18:18.118Z,58.58
2023-05-28T01:20:46.868Z,58.62
2023-05-28T01:23:19.636Z,59.23
2023-05-28T01:25:52.602Z,59.91
2023-05-28T01:28:22.469Z,60.43
2023-05-28T01:30:50.811Z,61.08
2023-05-28T01:33:20.396Z,61.68
2023-05-28T01:35:48.652Z,63.06
2023-05-28T01:38:18.840Z,64.93
2023-05-28T01:40:49.595Z,65.33
2023-05-28T01:43:18.094Z,64.38
2023-05-28T01:45:46.969Z,63.91
2023-05-28T01:48:15.357Z,62.85
2023-05-28T01:50:43.986Z,62.53
2023-05-28T01:53:12.716Z,62.36
2023-05-28T01:55:41.403Z,61.14
2023-05-28T01:58:09.793Z,60.16
2023-05-28T02:00:52.422Z,58.54
2023-05-28T02:03:20.835Z,58.62
2023-05-28T02:05:49.053Z,59.00
2023-05-28T02:08:17.155Z,59.81
2023-05-28T02:10:45.296Z,60.42
2023-05-28T02:13:13.507Z,61.12
2023-05-28T02:15:42.273Z,61.76
2023-05-28T02:18:11.888Z,62.58
2023-05-28T02:20:43.538Z,64.54
2023-05-28T02:23:11.801Z,64.93
2023-05-28T02:25:40.998Z,64.33
2023-05-28T02:28:09.373Z,63.77
2023-05-28T02:30:37.565Z,62.48
2023-05-28T02:33:06.292Z,62.31
2023-05-28T02:35:34.416Z,61.75
2023-05-28T02:38:02.791Z,61.76
2023-05-28T02:40:31.162Z,61.25
2023-05-28T02:42:59.334Z,60.07
2023-05-28T02:45:28.333Z,58.51
2023-05-28T02:47:57.276Z,58.74
2023-05-28T02:50:25.531Z,59.15
2023-05-28T02:53:24.111Z,59.54
2023-05-28T02:55:52.750Z,60.55
2023-05-28T02:58:21.977Z,61.35
2023-05-28T03:00:50.176Z,62.58
2023-05-28T03:03:18.982Z,64.81
2023-05-28T03:05:47.509Z,64.86
2023-05-28T03:08:16.907Z,64.30
2023-05-28T03:10:44.982Z,62.93
2023-05-28T03:13:13.677Z,62.55
2023-05-28T03:15:42.653Z,61.27
2023-05-28T03:18:11.181Z,61.60
2023-05-28T03:20:40.625Z,61.03
2023-05-28T03:23:09.751Z,59.39
2023-05-28T03:25:50.202Z,58.47
2023-05-28T03:28:18.475Z,58.86
2023-05-28T03:31:00.307Z,59.25
2023-05-28T03:33:28.567Z,60.16
2023-05-28T03:35:57.132Z,61.02
2023-05-28T03:38:25.403Z,61.73
2023-05-28T03:40:53.811Z,62.86
2023-05-28T03:43:22.466Z,64.53
2023-05-28T03:45:50.944Z,65.03
2023-05-28T03:48:19.662Z,64.70
2023-05-28T03:50:48.116Z,63.67
2023-05-28T03:53:16.797Z,62.98
2023-05-28T03:55:44.896Z,62.50
2023-05-28T03:58:17.139Z,62.04
2023-05-28T04:00:45.308Z,61.65
2023-05-28T04:03:13.642Z,60.93
2023-05-28T04:05:42.575Z,59.62
2023-05-28T04:08:10.966Z,57.99
2023-05-28T04:10:39.111Z,58.39
2023-05-28T04:13:09.356Z,59.05
2023-05-28T04:15:37.837Z,59.79
2023-05-28T04:18:06.712Z,60.51
2023-05-28T04:20:37.301Z,61.17
2023-05-28T04:23:05.937Z,62.53
2023-05-28T04:25:34.004Z,64.24
2023-05-28T04:28:02.289Z,64.29
2023-05-28T04:30:30.592Z,63.13
2023-05-28T04:32:59.706Z,62.12
2023-05-28T04:35:28.040Z,61.34
2023-05-28T04:37:56.417Z,60.59
2023-05-28T04:40:25.616Z,59.16
2023-05-28T04:42:56.875Z,57.72
2023-05-28T04:45:26.566Z,57.90
2023-05-28T04:47:56.016Z,58.60
2023-05-28T04:50:24.679Z,59.26
2023-05-28T04:52:55.895Z,59.93
2023-05-28T04:55:24.589Z,60.28
2023-05-28T04:57:52.885Z,60.86
2023-05-28T05:00:21.860Z,61.02
2023-05-28T05:02:51.406Z,61.32
2023-05-28T05:05:21.581Z,62.45
2023-05-28T05:07:49.754Z,63.81
2023-05-28T05:10:17.825Z,61.26
2023-05-28T05:12:45.927Z,58.84
2023-05-28T05:15:14.478Z,57.67
2023-05-28T05:17:44.419Z,57.80
2023-05-28T05:20:12.906Z,59.13
2023-05-28T05:22:41.059Z,58.87
2023-05-28T05:25:10.150Z,59.08
2023-05-28T05:27:39.543Z,59.00
2023-05-28T05:30:08.469Z,59.72
2023-05-28T05:32:36.657Z,60.19
2023-05-28T05:35:05.276Z,59.71
2023-05-28T05:38:07.158Z,59.49
2023-05-28T05:41:04.929Z,60.15
2023-05-28T05:43:46.934Z,59.39
2023-05-28T05:46:15.222Z,60.21
2023-05-28T05:48:43.610Z,60.31
2023-05-28T05:51:18.089Z,60.33
2023-05-28T05:53:46.477Z,60.66
2023-05-28T05:56:15.058Z,60.96
2023-05-28T05:58:43.338Z,60.26
2023-05-28T06:01:18.077Z,60.89
2023-05-28T06:03:46.322Z,60.96
2023-05-28T06:06:33.481Z,59.46
2023-05-28T06:09:15.255Z,60.41
2023-05-28T06:11:49.585Z,60.53
2023-05-28T06:14:17.739Z,62.58
2023-05-28T06:16:46.716Z,61.49
2023-05-28T06:19:16.113Z,61.02
2023-05-28T06:21:44.242Z,59.37
2023-05-28T06:24:12.807Z,57.15
2023-05-28T06:26:41.682Z,57.37
2023-05-28T06:29:11.181Z,57.66
2023-05-28T06:31:41.616Z,59.34
2023-05-28T06:34:10.113Z,58.90
2023-05-28T06:36:39.493Z,58.01
2023-05-28T06:39:08.615Z,58.38
2023-05-28T06:41:36.967Z,56.39
2023-05-28T06:44:06.294Z,56.41
2023-05-28T06:46:52.202Z,56.43
2023-05-28T06:49:20.449Z,55.96
2023-05-28T06:51:48.808Z,54.89
2023-05-28T06:54:17.191Z,54.43
2023-05-28T06:56:45.383Z,54.45
2023-05-28T06:59:32.166Z,53.94
2023-05-28T07:02:19.012Z,52.44
2023-05-28T07:05:13.521Z,54.18
2023-05-28T07:07:42.873Z,53.15
2023-05-28T07:10:12.497Z,51.18
2023-05-28T07:12:42.313Z,50.83
2023-05-28T07:15:11.714Z,50.11
2023-05-28T07:17:40.965Z,48.29
2023-05-28T07:20:10.138Z,50.35
2023-05-28T07:22:50.457Z,48.71
2023-05-28T07:25:18.558Z,48.45
2023-05-28T07:27:46.590Z,50.33
2023-05-28T07:30:19.697Z,49.60
2023-05-28T07:32:47.894Z,48.49
2023-05-28T07:35:17.450Z,47.64
2023-05-28T07:37:46.150Z,47.64
2023-05-28T07:40:15.551Z,47.88
2023-05-28T07:42:44.558Z,45.92
2023-05-28T07:45:12.728Z,46.70
2023-05-28T07:47:40.960Z,46.84
2023-05-28T07:50:25.046Z,47.02
2023-05-28T07:53:06.934Z,47.42
2023-05-28T07:55:36.027Z,43.68
2023-05-28T07:58:04.916Z,44.14
2023-05-28T08:00:34.125Z,42.73
2023-05-28T08:03:03.879Z,44.85
2023-05-28T08:05:40.097Z,43.29
2023-05-28T08:08:08.579Z,41.75
2023-05-28T08:10:37.508Z,39.83
2023-05-28T08:13:05.734Z,40.30
2023-05-28T08:15:37.216Z,42.95
2023-05-28T08:18:06.321Z,41.09
2023-05-28T08:20:36.700Z,41.91
2023-05-28T08:23:13.892Z,38.68
2023-05-28T08:25:42.012Z,38.11
2023-05-28T08:28:14.923Z,36.50
2023-05-28T08:30:43.028Z,39.27
2023-05-28T08:33:22.872Z,39.66
2023-05-28T08:35:52.207Z,38.85
2023-05-28T08:38:21.055Z,38.24
2023-05-28T08:40:57.901Z,37.35
2023-05-28T08:43:26.618Z,37.82
2023-05-28T08:45:56.027Z,37.93
2023-05-28T08:48:34.484Z,38.77
2023-05-28T08:51:04.136Z,39.57
2023-05-28T08:53:46.270Z,39.93
2023-05-28T08:56:15.270Z,39.79
2023-05-28T08:58:46.188Z,40.67
2023-05-28T09:01:14.723Z,40.86
2023-05-28T09:03:48.645Z,40.75
2023-05-28T09:06:21.891Z,41.45
2023-05-28T09:08:50.961Z,41.10
2023-05-28T09:11:33.683Z,41.28
2023-05-28T09:14:15.129Z,41.16
2023-05-28T09:16:44.906Z,38.39
2023-05-28T09:19:17.669Z,39.18
2023-05-28T09:21:59.116Z,37.81
2023-05-28T09:24:32.039Z,39.73
2023-05-28T09:27:21.326Z,40.57
2023-05-28T09:29:50.082Z,40.48
2023-05-28T09:32:22.075Z,41.21
2023-05-28T09:34:54.119Z,41.90
2023-05-28T09:37:23.432Z,41.67
2023-05-28T09:40:02.730Z,41.37
2023-05-28T09:42:52.914Z,39.94
2023-05-28T09:45:29.337Z,38.47
2023-05-28T09:47:57.491Z,38.46
2023-05-28T09:50:25.740Z,39.60
2023-05-28T09:52:58.683Z,39.72
2023-05-28T09:55:35.822Z,39.06
2023-05-28T09:58:05.927Z,40.08
2023-05-28T10:00:40.037Z,40.27
2023-05-28T10:03:23.795Z,40.09
2023-05-28T10:06:01.188Z,38.68
2023-05-28T10:08:30.169Z,39.03
2023-05-28T10:10:58.537Z,39.01
2023-05-28T10:13:28.281Z,39.21
2023-05-28T10:15:57.678Z,39.32
2023-05-28T10:18:27.167Z,38.60
2023-05-28T10:20:55.772Z,39.81
2023-05-28T10:23:25.476Z,39.15
2023-05-28T10:25:54.944Z,39.46
2023-05-28T10:28:23.232Z,39.70
2023-05-28T10:31:07.037Z,40.06
2023-05-28T10:33:46.054Z,39.44
2023-05-28T10:36:16.217Z,39.76
2023-05-28T10:38:47.211Z,38.99
2023-05-28T10:41:25.794Z,39.08
2023-05-28T10:43:54.610Z,38.81
2023-05-28T10:46:25.558Z,39.15
2023-05-28T10:49:11.191Z,38.74
2023-05-28T10:51:55.479Z,39.16
2023-05-28T10:54:33.034Z,39.85
2023-05-28T10:57:08.479Z,39.72
2023-05-28T10:59:43.674Z,39.80
2023-05-28T11:02:12.310Z,38.00
2023-05-28T11:04:41.391Z,36.83
2023-05-28T11:07:09.759Z,39.05
2023-05-28T11:09:37.997Z,38.80
2023-05-28T11:12:06.696Z,38.07
2023-05-28T11:14:39.539Z,37.99
2023-05-28T11:17:12.617Z,38.21
2023-05-28T11:19:48.622Z,36.80
2023-05-28T11:22:18.760Z,36.86
2023-05-28T11:24:59.601Z,37.68
2023-05-28T11:27:29.461Z,38.07
2023-05-28T11:30:00.202Z,37.77
2023-05-28T11:32:30.035Z,38.59
2023-05-28T11:34:59.252Z,38.22
2023-05-28T11:37:34.994Z,37.76
2023-05-28T11:40:06.817Z,38.14
2023-05-28T11:42:35.621Z,37.43
2023-05-28T11:45:05.490Z,38.01
2023-05-28T11:47:35.127Z,36.67
2023-05-28T11:50:11.759Z,35.67
2023-05-28T11:52:40.510Z,35.61
2023-05-28T11:55:09.796Z,36.80
2023-05-28T11:57:44.928Z,36.66
2023-05-28T12:00:19.940Z,36.81
2023-05-28T12:02:54.672Z,35.70
2023-05-28T12:05:23.384Z,37.20
2023-05-28T12:07:54.204Z,36.08
2023-05-28T12:10:23.742Z,34.09
2023-05-28T12:12:54.952Z,34.49
2023-05-28T12:15:25.951Z,35.98
2023-05-28T12:17:57.882Z,36.51
2023-05-28T12:20:26.253Z,35.95
2023-05-28T12:23:08.490Z,36.53
2023-05-28T12:25:53.690Z,35.76
2023-05-28T12:28:23.904Z,35.49
2023-05-28T12:30:55.538Z,34.45
2023-05-28T12:33:24.279Z,33.20
2023-05-28T12:35:52.700Z,34.41
2023-05-28T12:38:22.387Z,35.38
2023-05-28T12:40:50.944Z,35.50
2023-05-28T12:43:19.427Z,36.03
2023-05-28T12:45:48.191Z,35.22
2023-05-28T12:48:16.798Z,34.16
2023-05-28T12:50:44.966Z,34.37
2023-05-28T12:53:13.036Z,34.63
2023-05-28T12:55:41.268Z,35.01
2023-05-28T12:58:09.604Z,35.49
2023-05-28T13:00:38.378Z,33.96
2023-05-28T13:03:06.941Z,35.36
2023-05-28T13:05:35.390Z,34.76
2023-05-28T13:08:03.975Z,34.28
2023-05-28T13:10:32.340Z,34.31
2023-05-28T13:13:01.600Z,34.81
2023-05-28T13:15:29.813Z,34.40
2023-05-28T13:17:58.866Z,35.17
2023-05-28T13:20:44.855Z,35.07
2023-05-28T13:23:17.085Z,33.22
2023-05-28T13:25:45.461Z,33.62
2023-05-28T13:28:21.444Z,33.06
2023-05-28T13:30:49.744Z,34.11
2023-05-28T13:33:17.923Z,34.84
2023-05-28T13:35:46.193Z,34.65
2023-05-28T13:38:14.404Z,34.70
2023-05-28T13:40:43.475Z,34.32
2023-05-28T13:43:12.528Z,34.18
2023-05-28T13:45:41.805Z,33.88
2023-05-28T13:48:10.184Z,34.36
2023-05-28T13:50:38.422Z,33.90
2023-05-28T13:53:06.520Z,33.39
2023-05-28T13:55:34.556Z,33.33
2023-05-28T13:58:02.842Z,33.85
2023-05-28T14:00:38.810Z,33.51
2023-05-28T14:03:08.686Z,33.91
2023-05-28T14:05:38.040Z,33.76
2023-05-28T14:08:06.404Z,33.81
2023-05-28T14:10:34.815Z,33.59
2023-05-28T14:13:03.270Z,33.80
2023-05-28T14:15:31.423Z,33.30
2023-05-28T14:18:00.565Z,32.08
2023-05-28T14:20:30.770Z,32.96
2023-05-28T14:22:59.362Z,33.59
2023-05-28T14:25:27.396Z,33.68
2023-05-28T14:28:10.078Z,33.62
2023-05-28T14:30:39.817Z,33.26
2023-05-28T14:33:08.355Z,32.59
2023-05-28T14:35:36.481Z,32.94
2023-05-28T14:38:04.849Z,33.56
2023-05-28T14:40:33.190Z,34.38
2023-05-28T14:43:01.924Z,34.78
2023-05-28T14:45:30.080Z,34.58
2023-05-28T14:47:58.387Z,33.36
2023-05-28T14:50:26.656Z,33.02
2023-05-28T14:52:54.966Z,32.34
2023-05-28T14:55:22.962Z,33.27
2023-05-28T14:57:51.041Z,34.80
2023-05-28T15:00:19.473Z,35.05
2023-05-28T15:02:48.034Z,34.70
2023-05-28T15:05:16.532Z,33.90
2023-05-28T15:07:44.675Z,33.70
2023-05-28T15:10:12.942Z,33.57
2023-05-28T15:12:41.114Z,33.77
2023-05-28T15:15:10.682Z,33.29
2023-05-28T15:17:38.927Z,33.65
2023-05-28T15:20:08.105Z,33.97
2023-05-28T15:22:38.619Z,35.53
2023-05-28T15:25:07.813Z,36.03
2023-05-28T15:27:35.988Z,36.24
2023-05-28T15:30:04.781Z,35.51
2023-05-28T15:32:35.754Z,35.40
2023-05-28T15:35:04.410Z,35.36
2023-05-28T15:37:32.677Z,35.14
2023-05-28T15:40:02.013Z,34.69
2023-05-28T15:42:30.656Z,32.91
2023-05-28T15:44:58.934Z,31.92
2023-05-28T15:47:26.904Z,32.03
2023-05-28T15:49:54.929Z,32.90
2023-05-28T15:52:23.119Z,33.11
2023-05-28T15:54:51.598Z,33.30
2023-05-28T15:57:19.813Z,33.44
2023-05-28T15:59:49.245Z,33.14
2023-05-28T16:02:20.371Z,33.61
2023-05-28T16:04:48.637Z,33.77
2023-05-28T16:07:17.019Z,33.23
2023-05-28T16:09:45.942Z,33.12
2023-05-28T16:12:14.651Z,32.86
2023-05-28T16:14:46.306Z,33.29
2023-05-28T16:17:15.659Z,33.65
2023-05-28T16:19:44.066Z,33.58
2023-05-28T16:22:13.026Z,33.25
2023-05-28T16:24:41.502Z,33.41
2023-05-28T16:27:10.137Z,33.67
2023-05-28T16:29:38.766Z,33.81
2023-05-28T16:32:08.629Z,34.90
2023-05-28T16:34:38.000Z,34.58
2023-05-28T16:37:07.215Z,34.78
2023-05-28T16:39:35.878Z,34.76
2023-05-28T16:42:06.104Z,35.66
2023-05-28T16:44:34.466Z,34.45
2023-05-28T16:47:03.218Z,34.48
2023-05-28T16:49:31.940Z,36.23
2023-05-28T16:52:00.721Z,36.89
2023-05-28T16:54:31.219Z,37.42
2023-05-28T16:56:59.528Z,36.86
2023-05-28T16:59:27.973Z,37.79
2023-05-28T17:01:56.128Z,38.85
2023-05-28T17:04:24.596Z,38.64
2023-05-28T17:06:59.497Z,39.20
2023-05-28T17:09:27.970Z,39.55
2023-05-28T17:11:56.303Z,40.04
2023-05-28T17:14:24.679Z,40.02
2023-05-28T17:16:52.930Z,39.99
2023-05-28T17:19:21.433Z,40.70
2023-05-28T17:21:49.964Z,40.65
2023-05-28T17:24:18.177Z,41.70
2023-05-28T17:26:46.721Z,41.82
2023-05-28T17:29:17.316Z,41.62
2023-05-28T17:31:45.906Z,42.04
2023-05-28T17:34:14.539Z,42.00
2023-05-28T17:36:42.693Z,42.04
2023-05-28T17:39:11.007Z,42.51
2023-05-28T17:41:39.144Z,43.16
2023-05-28T17:44:08.547Z,43.49
2023-05-28T17:46:39.991Z,43.66
2023-05-28T17:49:08.695Z,43.94
2023-05-28T17:51:37.637Z,44.42
2023-05-28T17:54:06.297Z,44.60
2023-05-28T17:56:34.647Z,44.73
2023-05-28T17:59:03.527Z,45.00
2023-05-28T18:01:33.173Z,45.32
2023-05-28T18:04:01.815Z,45.59
2023-05-28T18:06:31.635Z,46.04
2023-05-28T18:08:59.829Z,46.52
2023-05-28T18:11:28.374Z,46.89
2023-05-28T18:13:57.014Z,47.23
2023-05-28T18:16:27.226Z,47.54
2023-05-28T18:19:02.337Z,47.92
2023-05-28T18:21:33.525Z,48.17
2023-05-28T18:24:10.189Z,48.48
2023-05-28T18:26:39.008Z,49.04
2023-05-28T18:29:07.418Z,48.15
2023-05-28T18:31:40.581Z,49.27
2023-05-28T18:34:10.111Z,49.65
2023-05-28T18:36:38.628Z,50.21
2023-05-28T18:39:06.819Z,50.71
2023-05-28T18:41:36.703Z,51.03
2023-05-28T18:44:05.643Z,51.30
2023-05-28T18:46:34.157Z,51.66
2023-05-28T18:49:02.377Z,51.97
2023-05-28T18:51:30.610Z,52.34
2023-05-28T18:54:00.394Z,52.65
2023-05-28T18:56:28.914Z,52.83
2023-05-28T18:59:02.925Z,53.10
2023-05-28T19:01:33.051Z,53.60
2023-05-28T19:04:03.942Z,53.88
2023-05-28T19:06:32.191Z,54.17
2023-05-28T19:09:00.734Z,54.28
2023-05-28T19:11:29.017Z,54.65
2023-05-28T19:13:57.274Z,54.95
2023-05-28T19:16:29.061Z,55.12
2023-05-28T19:18:57.716Z,55.56
2023-05-28T19:21:26.103Z,56.18
2023-05-28T19:23:54.547Z,56.32
2023-05-28T19:26:23.056Z,56.47
2023-05-28T19:28:51.746Z,56.62
2023-05-28T19:31:20.738Z,57.12
2023-05-28T19:33:49.014Z,57.31
2023-05-28T19:36:17.696Z,57.62
2023-05-28T19:38:46.084Z,57.74
2023-05-28T19:41:15.393Z,58.28
2023-05-28T19:43:44.398Z,58.68
2023-05-28T19:46:12.854Z,58.67
2023-05-28T19:48:41.433Z,58.92
2023-05-28T19:51:09.929Z,59.33
2023-05-28T19:53:38.498Z,59.34
2023-05-28T19:56:06.918Z,59.95
2023-05-28T19:58:35.069Z,60.46
2023-05-28T20:01:03.322Z,60.25
2023-05-28T20:03:31.643Z,60.43
2023-05-28T20:06:00.180Z,60.50
2023-05-28T20:08:28.251Z,60.80
2023-05-28T20:10:56.476Z,60.99
2023-05-28T20:13:26.556Z,61.30
2023-05-28T20:15:54.947Z,61.35
2023-05-28T20:18:23.105Z,61.64
2023-05-28T20:20:51.485Z,61.64
2023-05-28T20:23:19.752Z,61.39
2023-05-28T20:25:48.266Z,61.94
2023-05-28T20:28:16.614Z,62.62
2023-05-28T20:30:45.305Z,64.33
2023-05-28T20:33:16.036Z,63.86
2023-05-28T20:35:44.319Z,62.82
2023-05-28T20:38:12.587Z,61.74
2023-05-28T20:40:41.162Z,59.46
2023-05-28T20:43:10.444Z,58.28
2023-05-28T20:45:40.188Z,58.27
2023-05-28T20:48:08.435Z,58.73
2023-05-28T20:50:37.509Z,59.16
2023-05-28T20:53:08.121Z,59.62
2023-05-28T20:55:36.156Z,59.98
2023-05-28T20:58:04.434Z,60.29
2023-05-28T21:00:33.310Z,60.52
2023-05-28T21:03:01.767Z,61.03
2023-05-28T21:05:30.403Z,61.19
2023-05-28T21:07:59.184Z,61.28
2023-05-28T21:10:27.383Z,61.53
2023-05-28T21:12:56.264Z,61.85
2023-05-28T21:15:24.438Z,61.96
2023-05-28T21:17:52.880Z,63.30
2023-05-28T21:20:21.495Z,64.48
2023-05-28T21:22:49.690Z,64.48
2023-05-28T21:25:17.757Z,63.77
2023-05-28T21:27:48.923Z,62.81
2023-05-28T21:30:17.125Z,61.77
2023-05-28T21:32:47.615Z,60.21
2023-05-28T21:35:16.345Z,58.81
2023-05-28T21:37:47.832Z,58.67
2023-05-28T21:40:16.684Z,59.07
2023-05-28T21:42:44.850Z,59.51
2023-05-28T21:45:15.745Z,59.90
2023-05-28T21:47:44.293Z,60.38
2023-05-28T21:50:15.522Z,60.71
2023-05-28T21:52:43.632Z,61.10
2023-05-28T21:55:11.779Z,61.73
2023-05-28T21:57:41.230Z,62.74
2023-05-28T22:00:13.400Z,64.55
2023-05-28T22:02:44.865Z,64.24
2023-05-28T22:05:13.611Z,63.63
2023-05-28T22:07:42.817Z,62.38
2023-05-28T22:10:11.045Z,61.76
2023-05-28T22:12:40.528Z,60.10
2023-05-28T22:15:12.156Z,58.85
2023-05-28T22:17:43.679Z,59.07
2023-05-28T22:20:13.806Z,59.57
2023-05-28T22:22:42.853Z,60.17
2023-05-28T22:25:12.298Z,60.76
2023-05-28T22:27:40.858Z,61.24
2023-05-28T22:30:09.791Z,61.86
2023-05-28T22:32:37.947Z,62.97
2023-05-28T22:35:06.826Z,64.13
2023-05-28T22:37:35.099Z,64.47
2023-05-28T22:40:03.886Z,63.20
2023-05-28T22:42:31.945Z,62.76
2023-05-28T22:45:00.268Z,62.53
2023-05-28T22:47:28.461Z,62.07
2023-05-28T22:49:57.350Z,61.51
2023-05-28T22:52:26.039Z,59.55
2023-05-28T22:54:54.175Z,58.60
2023-05-28T22:57:22.423Z,58.83
2023-05-28T22:59:50.903Z,59.46
2023-05-28T23:02:18.995Z,60.16
2023-05-28T23:04:47.563Z,60.84
2023-05-28T23:07:15.760Z,61.45
2023-05-28T23:09:44.110Z,62.49
2023-05-28T23:12:13.416Z,64.41
2023-05-28T23:14:42.312Z,64.48
2023-05-28T23:17:11.037Z,63.83
2023-05-28T23:19:42.230Z,63.31
2023-05-28T23:22:10.427Z,63.10
2023-05-28T23:24:38.577Z,62.25
2023-05-28T23:27:07.781Z,61.77
2023-05-28T23:29:38.467Z,61.39
2023-05-28T23:32:06.787Z,60.37
2023-05-28T23:34:35.572Z,59.13
2023-05-28T23:37:03.988Z,59.23
2023-05-28T23:39:32.132Z,59.91
2023-05-28T23:42:00.191Z,60.61
2023-05-28T23:44:28.470Z,61.30
2023-05-28T23:46:56.906Z,61.84
2023-05-28T23:49:24.954Z,63.15
2023-05-28T23:51:53.049Z,64.88
2023-05-28T23:54:21.606Z,64.62
2023-05-28T23:56:50.062Z,64.31
2023-05-28T23:59:18.242Z,63.62
